Dallas Love Field
KDAL : now visible

Airfield :











YOU CAN JOIN US ON...

 
LOGIN :

Register | Disclaimer

   EN    FR    IT 

 









Legend :    VFR   Marginal VFR   IFR   Intensive IFR   Very Intensive IFR
Visi :
Ceiling :
>= 8 km
>= 3000ft
5 to 8 km
1000 to 3000 ft
1500m to 5 km
500 to 1000 ft
800 to 1500m
200 to 500 ft
< 800m
< 200 ft
Symbols :   Thunderstorms  Fog  Heavy snow  Heavy precipitations  Wind > 20 kt






- Airport Elevation : 487 ft
- IATA code : DAL


KDAL - Dallas Love Field

CURRENT METAR :
  • 230753Z 22003KT 10SM FEW015 FEW050 BKN150 BKN250 24/21 A3000 RMK AO2 SLP150 T02390211

EXPIRED METARs :
  • 230653Z 00000KT 10SM FEW015 SCT140 BKN180 OVC250 24/21 A2999 RMK AO2 SLP149 T02390211
  • 230553Z 25004KT 10SM FEW012 SCT130 BKN180 OVC250 24/22 A3000 RMK AO2 SLP152 60011 T02390217 10250 20239 403170239 50001
  • 230453Z 24005KT 10SM FEW012 BKN150 BKN190 OVC250 24/22 A3000 RMK AO2 SLP153 T02390217
  • 230353Z 18005KT 10SM FEW070 BKN180 OVC250 24/22 A3000 RMK AO2 SLP153 T02390217

TAF KDAL
Valid from the 23 at 06:00 until the 24 at 06:00 UTC


230532Z 2306/2406 20003KT P6SM BKN150
FM231500 05004KT P6SM SCT040 BKN250
FM240000 15006KT P6SM FEW040 SCT250
KZFW FIR / North America



MET'MAP, your aeronautical weather chart ! - Copyright ORBIFLY December 2007 - Disclaimer

ORBIFLY MET'MAP TEAM :

Programming & Development : Alexandra Zaïnal
Original concept : Baudouin d'Aumeries
Technical & hardware support : Manuel Goepfert
Assistance : Marc-Olivier Méhu




SOURCES & CREDITS :

   NOAA       Earth
Advisory